sensor_id;sensor_type;location;lat;lon;timestamp;P1;durP1;ratioP1;P2;durP2;ratioP2
24206;SDS011;12351;52.284;9.160;2024-01-16T00:00:41;1.67;;;0.80;;
24206;SDS011;12351;52.284;9.160;2024-01-16T00:03:27;2.80;;;0.80;;
24206;SDS011;12351;52.284;9.160;2024-01-16T00:06:14;2.73;;;0.80;;
24206;SDS011;12351;52.284;9.160;2024-01-16T00:09:01;1.67;;;0.90;;
24206;SDS011;12351;52.284;9.160;2024-01-16T00:11:47;1.37;;;0.73;;
24206;SDS011;12351;52.284;9.160;2024-01-16T00:14:35;1.73;;;0.93;;
24206;SDS011;12351;52.284;9.160;2024-01-16T00:17:22;2.23;;;1.00;;
24206;SDS011;12351;52.284;9.160;2024-01-16T00:20:09;2.43;;;0.73;;
24206;SDS011;12351;52.284;9.160;2024-01-16T00:22:59;3.70;;;0.93;;
24206;SDS011;12351;52.284;9.160;2024-01-16T00:25:46;3.37;;;0.70;;
24206;SDS011;12351;52.284;9.160;2024-01-16T00:28:32;4.87;;;1.13;;
24206;SDS011;12351;52.284;9.160;2024-01-16T00:31:19;5.07;;;0.90;;
24206;SDS011;12351;52.284;9.160;2024-01-16T00:34:05;5.60;;;1.00;;
24206;SDS011;12351;52.284;9.160;2024-01-16T00:36:52;3.67;;;0.70;;
24206;SDS011;12351;52.284;9.160;2024-01-16T00:39:38;3.67;;;0.80;;
24206;SDS011;12351;52.284;9.160;2024-01-16T00:42:28;4.50;;;0.83;;
24206;SDS011;12351;52.284;9.160;2024-01-16T00:45:14;4.37;;;0.87;;
24206;SDS011;12351;52.284;9.160;2024-01-16T00:48:01;3.47;;;0.70;;
24206;SDS011;12351;52.284;9.160;2024-01-16T00:50:49;5.20;;;1.10;;
24206;SDS011;12351;52.284;9.160;2024-01-16T00:56:25;4.07;;;1.07;;
24206;SDS011;12351;52.284;9.160;2024-01-16T00:59:12;3.83;;;0.93;;
24206;SDS011;12351;52.284;9.160;2024-01-16T01:04:49;3.40;;;0.80;;
24206;SDS011;12351;52.284;9.160;2024-01-16T01:07:39;3.23;;;0.93;;
24206;SDS011;12351;52.284;9.160;2024-01-16T01:10:26;3.73;;;1.20;;
24206;SDS011;12351;52.284;9.160;2024-01-16T01:13:12;3.33;;;1.00;;
24206;SDS011;12351;52.284;9.160;2024-01-16T01:15:59;6.70;;;1.27;;
24206;SDS011;12351;52.284;9.160;2024-01-16T01:18:46;3.93;;;1.23;;
24206;SDS011;12351;52.284;9.160;2024-01-16T01:21:33;5.37;;;1.20;;
24206;SDS011;12351;52.284;9.160;2024-01-16T01:24:21;5.57;;;1.03;;
24206;SDS011;12351;52.284;9.160;2024-01-16T01:27:08;4.77;;;1.00;;
24206;SDS011;12351;52.284;9.160;2024-01-16T01:29:54;3.20;;;0.90;;
24206;SDS011;12351;52.284;9.160;2024-01-16T01:32:41;4.27;;;1.00;;
24206;SDS011;12351;52.284;9.160;2024-01-16T01:35:28;5.03;;;0.93;;
24206;SDS011;12351;52.284;9.160;2024-01-16T01:38:15;3.40;;;0.90;;
24206;SDS011;12351;52.284;9.160;2024-01-16T01:41:03;6.73;;;0.93;;
24206;SDS011;12351;52.284;9.160;2024-01-16T01:43:49;3.80;;;1.07;;
24206;SDS011;12351;52.284;9.160;2024-01-16T01:46:36;3.07;;;0.73;;
24206;SDS011;12351;52.284;9.160;2024-01-16T01:49:23;4.30;;;1.00;;
24206;SDS011;12351;52.284;9.160;2024-01-16T01:52:11;2.87;;;0.67;;
24206;SDS011;12351;52.284;9.160;2024-01-16T01:54:58;5.20;;;1.03;;
24206;SDS011;12351;52.284;9.160;2024-01-16T01:57:46;2.30;;;0.93;;
24206;SDS011;12351;52.284;9.160;2024-01-16T02:03:21;5.77;;;0.87;;
24206;SDS011;12351;52.284;9.160;2024-01-16T02:06:11;3.77;;;1.00;;
24206;SDS011;12351;52.284;9.160;2024-01-16T02:09:00;4.70;;;1.07;;
24206;SDS011;12351;52.284;9.160;2024-01-16T02:11:46;6.27;;;0.90;;
24206;SDS011;12351;52.284;9.160;2024-01-16T02:17:21;3.63;;;0.97;;
24206;SDS011;12351;52.284;9.160;2024-01-16T02:22:56;5.07;;;1.07;;
24206;SDS011;12351;52.284;9.160;2024-01-16T02:25:45;4.70;;;0.73;;
24206;SDS011;12351;52.284;9.160;2024-01-16T02:28:32;4.60;;;1.30;;
24206;SDS011;12351;52.284;9.160;2024-01-16T02:31:21;5.03;;;0.90;;
24206;SDS011;12351;52.284;9.160;2024-01-16T02:34:08;4.07;;;1.00;;
24206;SDS011;12351;52.284;9.160;2024-01-16T02:36:55;5.23;;;0.90;;
24206;SDS011;12351;52.284;9.160;2024-01-16T02:39:42;4.17;;;1.10;;
24206;SDS011;12351;52.284;9.160;2024-01-16T02:42:29;3.70;;;0.87;;
24206;SDS011;12351;52.284;9.160;2024-01-16T02:45:16;6.37;;;0.90;;
24206;SDS011;12351;52.284;9.160;2024-01-16T02:48:03;2.73;;;0.80;;
24206;SDS011;12351;52.284;9.160;2024-01-16T02:50:51;6.53;;;1.00;;
24206;SDS011;12351;52.284;9.160;2024-01-16T02:53:37;3.63;;;0.80;;
24206;SDS011;12351;52.284;9.160;2024-01-16T02:56:24;6.13;;;0.90;;
24206;SDS011;12351;52.284;9.160;2024-01-16T02:59:14;6.03;;;0.90;;
24206;SDS011;12351;52.284;9.160;2024-01-16T03:02:01;3.17;;;0.80;;
24206;SDS011;12351;52.284;9.160;2024-01-16T03:04:48;4.97;;;1.10;;
24206;SDS011;12351;52.284;9.160;2024-01-16T03:07:35;3.63;;;0.80;;
24206;SDS011;12351;52.284;9.160;2024-01-16T03:10:21;6.50;;;1.17;;
24206;SDS011;12351;52.284;9.160;2024-01-16T03:13:08;5.03;;;0.97;;
24206;SDS011;12351;52.284;9.160;2024-01-16T03:15:54;3.50;;;0.80;;
24206;SDS011;12351;52.284;9.160;2024-01-16T03:18:41;4.67;;;1.10;;
24206;SDS011;12351;52.284;9.160;2024-01-16T03:21:29;4.67;;;1.10;;
24206;SDS011;12351;52.284;9.160;2024-01-16T03:24:15;4.17;;;0.80;;
24206;SDS011;12351;52.284;9.160;2024-01-16T03:27:02;5.27;;;0.83;;
24206;SDS011;12351;52.284;9.160;2024-01-16T03:29:48;2.80;;;1.17;;
24206;SDS011;12351;52.284;9.160;2024-01-16T03:32:36;6.90;;;1.00;;
24206;SDS011;12351;52.284;9.160;2024-01-16T03:35:23;5.43;;;1.20;;
24206;SDS011;12351;52.284;9.160;2024-01-16T03:38:12;5.50;;;0.90;;
24206;SDS011;12351;52.284;9.160;2024-01-16T03:40:58;6.77;;;1.27;;
24206;SDS011;12351;52.284;9.160;2024-01-16T03:43:45;8.73;;;1.10;;
24206;SDS011;12351;52.284;9.160;2024-01-16T03:46:32;5.93;;;1.13;;
24206;SDS011;12351;52.284;9.160;2024-01-16T03:49:19;4.73;;;1.07;;
24206;SDS011;12351;52.284;9.160;2024-01-16T03:52:05;4.13;;;0.97;;
24206;SDS011;12351;52.284;9.160;2024-01-16T03:54:53;6.03;;;1.10;;
24206;SDS011;12351;52.284;9.160;2024-01-16T03:57:39;4.37;;;1.10;;
24206;SDS011;12351;52.284;9.160;2024-01-16T04:00:26;3.37;;;1.00;;
24206;SDS011;12351;52.284;9.160;2024-01-16T04:03:13;8.13;;;1.03;;
24206;SDS011;12351;52.284;9.160;2024-01-16T04:06:00;3.90;;;0.97;;
24206;SDS011;12351;52.284;9.160;2024-01-16T04:08:47;5.03;;;1.20;;
24206;SDS011;12351;52.284;9.160;2024-01-16T04:11:33;8.47;;;1.20;;
24206;SDS011;12351;52.284;9.160;2024-01-16T04:14:20;4.67;;;1.20;;
24206;SDS011;12351;52.284;9.160;2024-01-16T04:17:07;5.97;;;1.57;;
24206;SDS011;12351;52.284;9.160;2024-01-16T04:19:54;3.27;;;1.43;;
24206;SDS011;12351;52.284;9.160;2024-01-16T04:22:40;4.47;;;1.40;;
24206;SDS011;12351;52.284;9.160;2024-01-16T04:25:27;6.77;;;1.40;;
24206;SDS011;12351;52.284;9.160;2024-01-16T04:28:14;4.90;;;1.30;;
24206;SDS011;12351;52.284;9.160;2024-01-16T04:31:01;4.33;;;1.23;;
24206;SDS011;12351;52.284;9.160;2024-01-16T04:33:47;6.10;;;1.50;;
24206;SDS011;12351;52.284;9.160;2024-01-16T04:36:34;5.23;;;1.60;;
24206;SDS011;12351;52.284;9.160;2024-01-16T04:39:21;5.10;;;1.93;;
24206;SDS011;12351;52.284;9.160;2024-01-16T04:42:08;5.77;;;1.83;;
24206;SDS011;12351;52.284;9.160;2024-01-16T04:44:56;5.27;;;2.13;;
24206;SDS011;12351;52.284;9.160;2024-01-16T04:47:43;3.37;;;1.90;;
24206;SDS011;12351;52.284;9.160;2024-01-16T04:50:29;6.40;;;2.13;;
24206;SDS011;12351;52.284;9.160;2024-01-16T04:53:16;6.40;;;2.73;;
24206;SDS011;12351;52.284;9.160;2024-01-16T04:56:03;6.27;;;2.40;;
24206;SDS011;12351;52.284;9.160;2024-01-16T04:58:50;9.17;;;2.27;;
24206;SDS011;12351;52.284;9.160;2024-01-16T05:01:37;7.10;;;2.33;;
24206;SDS011;12351;52.284;9.160;2024-01-16T05:04:24;5.03;;;1.77;;
24206;SDS011;12351;52.284;9.160;2024-01-16T05:07:10;5.33;;;1.63;;
24206;SDS011;12351;52.284;9.160;2024-01-16T05:09:56;5.97;;;1.97;;
24206;SDS011;12351;52.284;9.160;2024-01-16T05:12:43;5.53;;;1.67;;
24206;SDS011;12351;52.284;9.160;2024-01-16T05:15:30;4.20;;;1.70;;
24206;SDS011;12351;52.284;9.160;2024-01-16T05:18:18;7.00;;;2.13;;
24206;SDS011;12351;52.284;9.160;2024-01-16T05:21:04;9.93;;;2.20;;
24206;SDS011;12351;52.284;9.160;2024-01-16T05:23:51;4.73;;;2.00;;
24206;SDS011;12351;52.284;9.160;2024-01-16T05:26:38;4.93;;;2.07;;
24206;SDS011;12351;52.284;9.160;2024-01-16T05:29:24;12.13;;;2.30;;
24206;SDS011;12351;52.284;9.160;2024-01-16T05:32:11;4.90;;;1.97;;
24206;SDS011;12351;52.284;9.160;2024-01-16T05:34:59;5.93;;;1.97;;
24206;SDS011;12351;52.284;9.160;2024-01-16T05:37:46;5.37;;;1.93;;
24206;SDS011;12351;52.284;9.160;2024-01-16T05:40:33;6.00;;;2.37;;
24206;SDS011;12351;52.284;9.160;2024-01-16T05:43:20;6.67;;;2.37;;
24206;SDS011;12351;52.284;9.160;2024-01-16T05:46:07;8.07;;;2.10;;
24206;SDS011;12351;52.284;9.160;2024-01-16T05:48:53;8.77;;;2.30;;
24206;SDS011;12351;52.284;9.160;2024-01-16T05:51:41;5.37;;;2.50;;
24206;SDS011;12351;52.284;9.160;2024-01-16T05:54:28;5.93;;;2.33;;
24206;SDS011;12351;52.284;9.160;2024-01-16T05:57:15;6.30;;;2.43;;
24206;SDS011;12351;52.284;9.160;2024-01-16T06:00:02;10.10;;;2.80;;
24206;SDS011;12351;52.284;9.160;2024-01-16T06:02:50;9.17;;;2.50;;
24206;SDS011;12351;52.284;9.160;2024-01-16T06:05:37;7.73;;;2.77;;
24206;SDS011;12351;52.284;9.160;2024-01-16T06:08:23;12.73;;;3.00;;
24206;SDS011;12351;52.284;9.160;2024-01-16T06:11:11;6.80;;;2.87;;
24206;SDS011;12351;52.284;9.160;2024-01-16T06:13:58;9.40;;;2.97;;
24206;SDS011;12351;52.284;9.160;2024-01-16T06:16:45;10.00;;;3.30;;
24206;SDS011;12351;52.284;9.160;2024-01-16T06:19:31;9.30;;;2.80;;
24206;SDS011;12351;52.284;9.160;2024-01-16T06:22:18;7.53;;;2.70;;
24206;SDS011;12351;52.284;9.160;2024-01-16T06:25:05;7.30;;;3.07;;
24206;SDS011;12351;52.284;9.160;2024-01-16T06:27:51;9.30;;;3.00;;
24206;SDS011;12351;52.284;9.160;2024-01-16T06:30:38;8.17;;;2.60;;
24206;SDS011;12351;52.284;9.160;2024-01-16T06:33:24;4.00;;;2.30;;
24206;SDS011;12351;52.284;9.160;2024-01-16T06:36:11;7.50;;;2.70;;
24206;SDS011;12351;52.284;9.160;2024-01-16T06:38:58;8.53;;;2.83;;
24206;SDS011;12351;52.284;9.160;2024-01-16T06:41:44;4.73;;;2.70;;
24206;SDS011;12351;52.284;9.160;2024-01-16T06:44:31;6.20;;;2.73;;
24206;SDS011;12351;52.284;9.160;2024-01-16T06:47:18;5.93;;;2.57;;
24206;SDS011;12351;52.284;9.160;2024-01-16T06:50:05;5.50;;;2.93;;
24206;SDS011;12351;52.284;9.160;2024-01-16T06:52:52;8.13;;;2.93;;
24206;SDS011;12351;52.284;9.160;2024-01-16T06:55:39;6.67;;;2.50;;
24206;SDS011;12351;52.284;9.160;2024-01-16T06:58:26;9.70;;;2.47;;
24206;SDS011;12351;52.284;9.160;2024-01-16T07:01:13;8.33;;;2.80;;
24206;SDS011;12351;52.284;9.160;2024-01-16T07:03:59;5.33;;;2.60;;
24206;SDS011;12351;52.284;9.160;2024-01-16T07:06:46;5.30;;;2.40;;
24206;SDS011;12351;52.284;9.160;2024-01-16T07:09:33;7.40;;;2.60;;
24206;SDS011;12351;52.284;9.160;2024-01-16T07:12:19;8.50;;;2.57;;
24206;SDS011;12351;52.284;9.160;2024-01-16T07:15:06;6.77;;;2.40;;
24206;SDS011;12351;52.284;9.160;2024-01-16T07:17:53;6.83;;;2.90;;
24206;SDS011;12351;52.284;9.160;2024-01-16T07:20:40;7.40;;;2.83;;
24206;SDS011;12351;52.284;9.160;2024-01-16T07:23:26;7.73;;;3.17;;
24206;SDS011;12351;52.284;9.160;2024-01-16T07:26:13;8.73;;;3.27;;
24206;SDS011;12351;52.284;9.160;2024-01-16T07:29:01;6.50;;;3.20;;
24206;SDS011;12351;52.284;9.160;2024-01-16T07:31:48;8.87;;;3.17;;
24206;SDS011;12351;52.284;9.160;2024-01-16T07:34:34;7.27;;;2.73;;
24206;SDS011;12351;52.284;9.160;2024-01-16T07:37:21;8.17;;;2.87;;
24206;SDS011;12351;52.284;9.160;2024-01-16T07:40:07;7.83;;;3.07;;
24206;SDS011;12351;52.284;9.160;2024-01-16T07:42:55;9.00;;;2.77;;
24206;SDS011;12351;52.284;9.160;2024-01-16T07:45:41;9.30;;;3.10;;
24206;SDS011;12351;52.284;9.160;2024-01-16T07:48:28;8.27;;;3.20;;
24206;SDS011;12351;52.284;9.160;2024-01-16T07:51:14;7.33;;;2.87;;
24206;SDS011;12351;52.284;9.160;2024-01-16T07:56:51;10.87;;;3.80;;
24206;SDS011;12351;52.284;9.160;2024-01-16T07:59:41;7.77;;;3.73;;
24206;SDS011;12351;52.284;9.160;2024-01-16T08:02:31;6.80;;;3.60;;
24206;SDS011;12351;52.284;9.160;2024-01-16T08:05:16;9.10;;;3.13;;
24206;SDS011;12351;52.284;9.160;2024-01-16T08:08:04;11.83;;;3.87;;
24206;SDS011;12351;52.284;9.160;2024-01-16T08:10:52;10.33;;;3.50;;
24206;SDS011;12351;52.284;9.160;2024-01-16T08:13:39;10.00;;;3.83;;
24206;SDS011;12351;52.284;9.160;2024-01-16T08:16:26;6.27;;;3.60;;
24206;SDS011;12351;52.284;9.160;2024-01-16T08:19:13;5.67;;;3.13;;
24206;SDS011;12351;52.284;9.160;2024-01-16T08:21:59;9.40;;;3.90;;
24206;SDS011;12351;52.284;9.160;2024-01-16T08:24:46;8.30;;;3.57;;
24206;SDS011;12351;52.284;9.160;2024-01-16T08:27:32;5.60;;;3.50;;
24206;SDS011;12351;52.284;9.160;2024-01-16T08:30:21;8.93;;;3.40;;
24206;SDS011;12351;52.284;9.160;2024-01-16T08:33:07;7.07;;;3.53;;
24206;SDS011;12351;52.284;9.160;2024-01-16T08:35:54;8.83;;;3.57;;
24206;SDS011;12351;52.284;9.160;2024-01-16T08:38:41;10.40;;;3.20;;
24206;SDS011;12351;52.284;9.160;2024-01-16T08:41:27;7.47;;;3.57;;
24206;SDS011;12351;52.284;9.160;2024-01-16T08:47:03;7.07;;;3.50;;
24206;SDS011;12351;52.284;9.160;2024-01-16T08:49:50;8.23;;;3.10;;
24206;SDS011;12351;52.284;9.160;2024-01-16T08:52:36;8.87;;;3.50;;
24206;SDS011;12351;52.284;9.160;2024-01-16T08:55:23;12.90;;;3.80;;
24206;SDS011;12351;52.284;9.160;2024-01-16T08:58:09;8.37;;;3.57;;
24206;SDS011;12351;52.284;9.160;2024-01-16T09:00:56;10.10;;;3.53;;
24206;SDS011;12351;52.284;9.160;2024-01-16T09:03:43;7.13;;;3.30;;
24206;SDS011;12351;52.284;9.160;2024-01-16T09:06:30;6.83;;;3.87;;
24206;SDS011;12351;52.284;9.160;2024-01-16T09:09:16;6.20;;;3.37;;
24206;SDS011;12351;52.284;9.160;2024-01-16T09:12:04;5.73;;;3.30;;
24206;SDS011;12351;52.284;9.160;2024-01-16T09:14:51;7.33;;;3.20;;
24206;SDS011;12351;52.284;9.160;2024-01-16T09:17:37;7.60;;;3.67;;
24206;SDS011;12351;52.284;9.160;2024-01-16T09:20:24;10.27;;;3.27;;
24206;SDS011;12351;52.284;9.160;2024-01-16T09:23:11;8.37;;;3.37;;
24206;SDS011;12351;52.284;9.160;2024-01-16T09:25:57;11.67;;;3.50;;
24206;SDS011;12351;52.284;9.160;2024-01-16T09:28:43;7.23;;;3.60;;
24206;SDS011;12351;52.284;9.160;2024-01-16T09:31:30;8.60;;;3.53;;
24206;SDS011;12351;52.284;9.160;2024-01-16T09:34:17;7.20;;;3.37;;
24206;SDS011;12351;52.284;9.160;2024-01-16T09:37:04;5.83;;;3.30;;
24206;SDS011;12351;52.284;9.160;2024-01-16T09:39:50;6.30;;;3.10;;
24206;SDS011;12351;52.284;9.160;2024-01-16T09:42:38;8.83;;;3.20;;
24206;SDS011;12351;52.284;9.160;2024-01-16T09:45:25;5.87;;;3.20;;
24206;SDS011;12351;52.284;9.160;2024-01-16T09:48:14;10.13;;;3.70;;
24206;SDS011;12351;52.284;9.160;2024-01-16T09:51:01;4.87;;;3.23;;
24206;SDS011;12351;52.284;9.160;2024-01-16T09:53:48;7.40;;;3.27;;
24206;SDS011;12351;52.284;9.160;2024-01-16T09:56:38;7.20;;;3.50;;
24206;SDS011;12351;52.284;9.160;2024-01-16T09:59:25;7.13;;;3.13;;
24206;SDS011;12351;52.284;9.160;2024-01-16T10:02:14;6.83;;;3.50;;
24206;SDS011;12351;52.284;9.160;2024-01-16T10:05:01;7.07;;;3.10;;
24206;SDS011;12351;52.284;9.160;2024-01-16T10:07:48;9.20;;;3.10;;
24206;SDS011;12351;52.284;9.160;2024-01-16T10:10:37;8.97;;;3.17;;
24206;SDS011;12351;52.284;9.160;2024-01-16T10:13:25;5.77;;;3.40;;
24206;SDS011;12351;52.284;9.160;2024-01-16T10:16:12;7.77;;;3.10;;
24206;SDS011;12351;52.284;9.160;2024-01-16T10:19:03;7.77;;;3.40;;
24206;SDS011;12351;52.284;9.160;2024-01-16T10:21:48;7.47;;;3.27;;
24206;SDS011;12351;52.284;9.160;2024-01-16T10:24:35;5.93;;;3.10;;
24206;SDS011;12351;52.284;9.160;2024-01-16T10:27:21;5.50;;;2.77;;
24206;SDS011;12351;52.284;9.160;2024-01-16T10:30:09;6.60;;;3.20;;
24206;SDS011;12351;52.284;9.160;2024-01-16T10:33:00;5.63;;;3.10;;
24206;SDS011;12351;52.284;9.160;2024-01-16T10:35:45;5.53;;;2.73;;
24206;SDS011;12351;52.284;9.160;2024-01-16T10:38:32;5.00;;;2.67;;
24206;SDS011;12351;52.284;9.160;2024-01-16T10:41:20;4.33;;;2.50;;
24206;SDS011;12351;52.284;9.160;2024-01-16T10:47:09;5.77;;;2.80;;
24206;SDS011;12351;52.284;9.160;2024-01-16T10:49:45;5.67;;;2.73;;
24206;SDS011;12351;52.284;9.160;2024-01-16T10:52:31;4.77;;;2.37;;
24206;SDS011;12351;52.284;9.160;2024-01-16T10:55:21;5.90;;;2.80;;
24206;SDS011;12351;52.284;9.160;2024-01-16T10:58:08;6.53;;;2.60;;
24206;SDS011;12351;52.284;9.160;2024-01-16T11:00:57;6.20;;;2.83;;
24206;SDS011;12351;52.284;9.160;2024-01-16T11:03:48;6.93;;;2.70;;
24206;SDS011;12351;52.284;9.160;2024-01-16T11:06:37;3.93;;;2.30;;
24206;SDS011;12351;52.284;9.160;2024-01-16T11:09:25;5.63;;;2.70;;
24206;SDS011;12351;52.284;9.160;2024-01-16T11:12:12;7.33;;;2.50;;
24206;SDS011;12351;52.284;9.160;2024-01-16T11:15:00;9.47;;;2.70;;
24206;SDS011;12351;52.284;9.160;2024-01-16T11:17:50;6.10;;;2.33;;
24206;SDS011;12351;52.284;9.160;2024-01-16T11:20:41;4.40;;;2.40;;
24206;SDS011;12351;52.284;9.160;2024-01-16T11:23:28;5.10;;;3.23;;
24206;SDS011;12351;52.284;9.160;2024-01-16T11:31:55;4.87;;;3.07;;
24206;SDS011;12351;52.284;9.160;2024-01-16T11:37:35;10.67;;;3.37;;
24206;SDS011;12351;52.284;9.160;2024-01-16T11:40:23;8.73;;;3.20;;
24206;SDS011;12351;52.284;9.160;2024-01-16T11:46:01;8.90;;;3.70;;
24206;SDS011;12351;52.284;9.160;2024-01-16T11:49:01;6.73;;;3.60;;
24206;SDS011;12351;52.284;9.160;2024-01-16T11:51:40;7.17;;;3.50;;
24206;SDS011;12351;52.284;9.160;2024-01-16T11:54:26;12.83;;;4.10;;
24206;SDS011;12351;52.284;9.160;2024-01-16T12:00:05;12.85;;;4.10;;
24206;SDS011;12351;52.284;9.160;2024-01-16T12:02:56;7.90;;;3.93;;
24206;SDS011;12351;52.284;9.160;2024-01-16T12:05:42;9.77;;;4.30;;
24206;SDS011;12351;52.284;9.160;2024-01-16T12:08:29;10.53;;;4.03;;
24206;SDS011;12351;52.284;9.160;2024-01-16T12:11:18;10.73;;;4.30;;
24206;SDS011;12351;52.284;9.160;2024-01-16T12:14:06;9.07;;;4.57;;
24206;SDS011;12351;52.284;9.160;2024-01-16T12:16:52;8.10;;;4.17;;
24206;SDS011;12351;52.284;9.160;2024-01-16T12:19:41;8.00;;;4.47;;
24206;SDS011;12351;52.284;9.160;2024-01-16T12:22:28;10.00;;;4.97;;
24206;SDS011;12351;52.284;9.160;2024-01-16T12:25:18;10.27;;;4.77;;
24206;SDS011;12351;52.284;9.160;2024-01-16T12:28:04;7.93;;;4.50;;
24206;SDS011;12351;52.284;9.160;2024-01-16T12:30:51;9.23;;;4.90;;
24206;SDS011;12351;52.284;9.160;2024-01-16T12:33:38;9.60;;;5.07;;
24206;SDS011;12351;52.284;9.160;2024-01-16T12:36:25;9.17;;;5.73;;
24206;SDS011;12351;52.284;9.160;2024-01-16T12:42:01;12.43;;;6.23;;
24206;SDS011;12351;52.284;9.160;2024-01-16T12:44:49;12.17;;;6.00;;
24206;SDS011;12351;52.284;9.160;2024-01-16T12:47:35;11.67;;;5.80;;
24206;SDS011;12351;52.284;9.160;2024-01-16T12:50:22;10.83;;;6.57;;
24206;SDS011;12351;52.284;9.160;2024-01-16T12:53:11;11.93;;;6.17;;
24206;SDS011;12351;52.284;9.160;2024-01-16T12:55:58;9.23;;;6.50;;
24206;SDS011;12351;52.284;9.160;2024-01-16T12:58:46;10.07;;;6.93;;
24206;SDS011;12351;52.284;9.160;2024-01-16T13:01:33;12.80;;;6.97;;
24206;SDS011;12351;52.284;9.160;2024-01-16T13:04:19;15.00;;;6.93;;
24206;SDS011;12351;52.284;9.160;2024-01-16T13:07:06;11.23;;;6.03;;
24206;SDS011;12351;52.284;9.160;2024-01-16T13:12:42;10.07;;;6.27;;
24206;SDS011;12351;52.284;9.160;2024-01-16T13:15:30;11.03;;;6.20;;
24206;SDS011;12351;52.284;9.160;2024-01-16T13:18:18;12.53;;;5.90;;
24206;SDS011;12351;52.284;9.160;2024-01-16T13:21:06;10.03;;;6.27;;
24206;SDS011;12351;52.284;9.160;2024-01-16T13:23:56;13.93;;;6.30;;
24206;SDS011;12351;52.284;9.160;2024-01-16T13:26:43;10.60;;;6.20;;
24206;SDS011;12351;52.284;9.160;2024-01-16T13:29:29;15.93;;;6.27;;
24206;SDS011;12351;52.284;9.160;2024-01-16T13:32:17;11.97;;;5.90;;
24206;SDS011;12351;52.284;9.160;2024-01-16T13:35:05;12.93;;;5.87;;
24206;SDS011;12351;52.284;9.160;2024-01-16T13:37:52;9.17;;;5.80;;
24206;SDS011;12351;52.284;9.160;2024-01-16T13:40:39;13.80;;;5.80;;
24206;SDS011;12351;52.284;9.160;2024-01-16T13:43:25;11.47;;;5.60;;
24206;SDS011;12351;52.284;9.160;2024-01-16T13:46:12;12.20;;;5.40;;
24206;SDS011;12351;52.284;9.160;2024-01-16T13:48:58;9.57;;;5.60;;
24206;SDS011;12351;52.284;9.160;2024-01-16T13:51:45;12.57;;;5.40;;
24206;SDS011;12351;52.284;9.160;2024-01-16T13:54:31;10.87;;;4.60;;
24206;SDS011;12351;52.284;9.160;2024-01-16T13:57:19;12.27;;;5.10;;
24206;SDS011;12351;52.284;9.160;2024-01-16T14:00:07;9.60;;;4.67;;
24206;SDS011;12351;52.284;9.160;2024-01-16T14:02:56;8.17;;;4.43;;
24206;SDS011;12351;52.284;9.160;2024-01-16T14:05:43;13.47;;;4.97;;
24206;SDS011;12351;52.284;9.160;2024-01-16T14:08:31;11.90;;;5.07;;
24206;SDS011;12351;52.284;9.160;2024-01-16T14:11:18;17.40;;;6.10;;
24206;SDS011;12351;52.284;9.160;2024-01-16T14:14:05;13.73;;;5.60;;
24206;SDS011;12351;52.284;9.160;2024-01-16T14:16:55;12.33;;;5.17;;
24206;SDS011;12351;52.284;9.160;2024-01-16T14:19:41;11.80;;;5.53;;
24206;SDS011;12351;52.284;9.160;2024-01-16T14:22:28;10.43;;;5.50;;
24206;SDS011;12351;52.284;9.160;2024-01-16T14:25:15;10.00;;;4.77;;
24206;SDS011;12351;52.284;9.160;2024-01-16T14:28:03;9.90;;;5.20;;
24206;SDS011;12351;52.284;9.160;2024-01-16T14:30:50;12.03;;;5.40;;
24206;SDS011;12351;52.284;9.160;2024-01-16T14:33:37;12.40;;;5.30;;
24206;SDS011;12351;52.284;9.160;2024-01-16T14:36:23;11.63;;;5.20;;
24206;SDS011;12351;52.284;9.160;2024-01-16T14:39:10;8.83;;;4.40;;
24206;SDS011;12351;52.284;9.160;2024-01-16T14:41:58;13.93;;;5.20;;
24206;SDS011;12351;52.284;9.160;2024-01-16T14:44:45;7.77;;;4.27;;
24206;SDS011;12351;52.284;9.160;2024-01-16T14:47:31;9.87;;;4.60;;
24206;SDS011;12351;52.284;9.160;2024-01-16T14:50:18;13.17;;;3.87;;
24206;SDS011;12351;52.284;9.160;2024-01-16T14:53:06;8.07;;;3.73;;
24206;SDS011;12351;52.284;9.160;2024-01-16T14:55:53;10.80;;;3.70;;
24206;SDS011;12351;52.284;9.160;2024-01-16T15:01:28;12.60;;;3.60;;
24206;SDS011;12351;52.284;9.160;2024-01-16T15:04:15;11.70;;;3.77;;
24206;SDS011;12351;52.284;9.160;2024-01-16T15:07:01;9.07;;;3.27;;
24206;SDS011;12351;52.284;9.160;2024-01-16T15:09:48;10.87;;;3.47;;
24206;SDS011;12351;52.284;9.160;2024-01-16T15:12:35;7.63;;;3.60;;
24206;SDS011;12351;52.284;9.160;2024-01-16T15:15:22;7.37;;;3.70;;
24206;SDS011;12351;52.284;9.160;2024-01-16T15:18:09;9.40;;;3.40;;
24206;SDS011;12351;52.284;9.160;2024-01-16T15:20:57;9.53;;;3.17;;
24206;SDS011;12351;52.284;9.160;2024-01-16T15:23:44;10.53;;;3.40;;
24206;SDS011;12351;52.284;9.160;2024-01-16T15:26:30;7.20;;;3.00;;
24206;SDS011;12351;52.284;9.160;2024-01-16T15:29:17;10.87;;;3.40;;
24206;SDS011;12351;52.284;9.160;2024-01-16T15:32:03;9.03;;;4.03;;
24206;SDS011;12351;52.284;9.160;2024-01-16T15:34:50;8.07;;;3.50;;
24206;SDS011;12351;52.284;9.160;2024-01-16T15:37:36;9.53;;;3.30;;
24206;SDS011;12351;52.284;9.160;2024-01-16T15:40:23;7.57;;;3.47;;
24206;SDS011;12351;52.284;9.160;2024-01-16T15:43:10;9.53;;;3.37;;
24206;SDS011;12351;52.284;9.160;2024-01-16T15:45:57;8.60;;;3.40;;
24206;SDS011;12351;52.284;9.160;2024-01-16T15:48:44;6.50;;;3.20;;
24206;SDS011;12351;52.284;9.160;2024-01-16T15:51:30;7.77;;;4.17;;
24206;SDS011;12351;52.284;9.160;2024-01-16T15:54:17;9.13;;;5.77;;
24206;SDS011;12351;52.284;9.160;2024-01-16T15:57:04;13.37;;;5.80;;
24206;SDS011;12351;52.284;9.160;2024-01-16T15:59:50;9.80;;;4.30;;
24206;SDS011;12351;52.284;9.160;2024-01-16T16:02:38;10.33;;;3.70;;
24206;SDS011;12351;52.284;9.160;2024-01-16T16:05:24;6.43;;;3.60;;
24206;SDS011;12351;52.284;9.160;2024-01-16T16:08:11;7.93;;;3.67;;
24206;SDS011;12351;52.284;9.160;2024-01-16T16:10:57;8.60;;;3.80;;
24206;SDS011;12351;52.284;9.160;2024-01-16T16:13:44;7.60;;;3.43;;
24206;SDS011;12351;52.284;9.160;2024-01-16T16:16:31;7.10;;;3.30;;
24206;SDS011;12351;52.284;9.160;2024-01-16T16:19:18;7.97;;;3.23;;
24206;SDS011;12351;52.284;9.160;2024-01-16T16:22:05;6.50;;;3.33;;
24206;SDS011;12351;52.284;9.160;2024-01-16T16:24:53;8.83;;;4.03;;
24206;SDS011;12351;52.284;9.160;2024-01-16T16:27:40;6.63;;;4.00;;
24206;SDS011;12351;52.284;9.160;2024-01-16T16:30:29;9.50;;;4.10;;
24206;SDS011;12351;52.284;9.160;2024-01-16T16:33:16;9.43;;;3.83;;
24206;SDS011;12351;52.284;9.160;2024-01-16T16:36:05;11.17;;;4.00;;
24206;SDS011;12351;52.284;9.160;2024-01-16T16:38:52;9.47;;;4.07;;
24206;SDS011;12351;52.284;9.160;2024-01-16T16:41:39;8.10;;;3.70;;
24206;SDS011;12351;52.284;9.160;2024-01-16T16:44:26;12.27;;;3.73;;
24206;SDS011;12351;52.284;9.160;2024-01-16T16:47:13;10.57;;;3.90;;
24206;SDS011;12351;52.284;9.160;2024-01-16T16:50:02;8.50;;;3.47;;
24206;SDS011;12351;52.284;9.160;2024-01-16T16:52:53;7.90;;;3.73;;
24206;SDS011;12351;52.284;9.160;2024-01-16T16:55:40;12.90;;;3.70;;
24206;SDS011;12351;52.284;9.160;2024-01-16T16:58:28;8.93;;;3.80;;
24206;SDS011;12351;52.284;9.160;2024-01-16T17:01:15;9.00;;;3.80;;
24206;SDS011;12351;52.284;9.160;2024-01-16T17:04:04;6.77;;;3.33;;
24206;SDS011;12351;52.284;9.160;2024-01-16T17:06:50;9.30;;;3.50;;
24206;SDS011;12351;52.284;9.160;2024-01-16T17:09:39;7.57;;;3.87;;
24206;SDS011;12351;52.284;9.160;2024-01-16T17:12:27;9.10;;;2.73;;
24206;SDS011;12351;52.284;9.160;2024-01-16T17:15:16;9.23;;;3.60;;
24206;SDS011;12351;52.284;9.160;2024-01-16T17:18:03;8.87;;;3.00;;
24206;SDS011;12351;52.284;9.160;2024-01-16T17:20:51;11.17;;;3.70;;
24206;SDS011;12351;52.284;9.160;2024-01-16T17:23:38;12.50;;;3.77;;
24206;SDS011;12351;52.284;9.160;2024-01-16T17:26:28;11.03;;;2.93;;
24206;SDS011;12351;52.284;9.160;2024-01-16T17:29:15;8.87;;;3.23;;